Time;durP1;ratioP1;P1;durP2;ratioP2;P2;SDS_P1;SDS_P2;PMS_P1;PMS_P2;Temp;Humidity;BMP_temperature;BMP_pressure;BME280_temperature;BME280_humidity;BME280_pressure;Samples;Min_cycle;Max_cycle;Signal;HPM_P1;HPM_P2
2022/04/04 00:01:54;;;;;;;4.47;2.95;;;;;;;;;;5045223;28;20052;-69
2022/04/04 00:04:20;;;;;;;7.28;2.58;;;;;;;;;;5044250;28;20090;-70
2022/04/04 00:06:46;;;;;;;5.75;2.75;;;;;;;;;;5044789;28;20044;-70
2022/04/04 00:09:12;;;;;;;3.50;2.10;;;;;;;;;;5044340;28;20029;-69
2022/04/04 00:11:38;;;;;;;10.88;2.50;;;;;;;;;;5043404;28;20056;-70
2022/04/04 00:14:05;;;;;;;4.65;2.38;;;;;;;;;;5043613;28;20028;-70
2022/04/04 00:16:32;;;;;;;6.40;2.40;;;;;;;;;;5044309;28;20099;-69
2022/04/04 00:18:59;;;;;;;7.10;3.03;;;;;;;;;;5040637;28;20094;-69
2022/04/04 00:21:25;;;;;;;5.32;2.55;;;;;;;;;;5043100;28;20045;-69
2022/04/04 00:23:51;;;;;;;9.60;4.00;;;;;;;;;;5042682;28;20021;-69
2022/04/04 00:26:17;;;;;;;12.48;3.08;;;;;;;;;;5042652;28;20044;-69
2022/04/04 00:28:43;;;;;;;6.07;3.67;;;;;;;;;;5057201;28;20037;-69
2022/04/04 00:31:09;;;;;;;7.68;4.43;;;;;;;;;;5043388;28;20083;-69
2022/04/04 00:33:35;;;;;;;9.02;4.22;;;;;;;;;;5043890;28;20079;-68
2022/04/04 00:36:02;;;;;;;8.07;4.60;;;;;;;;;;5045641;28;20440;-69
2022/04/04 00:38:28;;;;;;;10.68;5.72;;;;;;;;;;5041736;28;20029;-69
2022/04/04 00:40:54;;;;;;;9.60;5.32;;;;;;;;;;5044467;28;20124;-69
2022/04/04 00:43:20;;;;;;;9.50;6.13;;;;;;;;;;5041246;28;20065;-69
2022/04/04 00:45:46;;;;;;;9.27;5.93;;;;;;;;;;5042176;28;20048;-69
2022/04/04 00:48:12;;;;;;;8.18;6.32;;;;;;;;;;5042443;28;20147;-69
2022/04/04 00:50:39;;;;;;;14.60;6.47;;;;;;;;;;5045094;28;20501;-69
2022/04/04 00:53:07;;;;;;;11.18;6.20;;;;;;;;;;5043895;28;20033;-69
2022/04/04 00:55:33;;;;;;;8.18;6.00;;;;;;;;;;5043199;28;20064;-69
2022/04/04 00:57:59;;;;;;;13.02;6.60;;;;;;;;;;5041515;28;20045;-69
2022/04/04 01:00:25;;;;;;;14.32;6.32;;;;;;;;;;5044099;28;20382;-69
2022/04/04 01:02:51;;;;;;;13.60;6.57;;;;;;;;;;5044080;28;20107;-69
2022/04/04 01:05:18;;;;;;;10.80;6.22;;;;;;;;;;5044764;28;20036;-69
2022/04/04 01:07:44;;;;;;;12.55;5.85;;;;;;;;;;5043533;28;22061;-69
2022/04/04 01:10:10;;;;;;;12.25;6.53;;;;;;;;;;5045794;28;20043;-69
2022/04/04 01:12:36;;;;;;;9.35;5.97;;;;;;;;;;5045012;28;20540;-69
2022/04/04 01:15:03;;;;;;;10.23;6.47;;;;;;;;;;5047365;28;20037;-69
2022/04/04 01:17:29;;;;;;;10.32;6.28;;;;;;;;;;5049935;28;20116;-69
2022/04/04 01:19:56;;;;;;;10.93;5.07;;;;;;;;;;5046586;28;20033;-69
2022/04/04 01:22:22;;;;;;;8.93;5.50;;;;;;;;;;5047227;28;20473;-69
2022/04/04 01:24:48;;;;;;;8.98;5.45;;;;;;;;;;5050370;28;20392;-69
2022/04/04 01:27:14;;;;;;;8.57;5.95;;;;;;;;;;5048707;28;20461;-69
2022/04/04 01:29:40;;;;;;;8.98;6.32;;;;;;;;;;5044920;28;20033;-69
2022/04/04 01:32:07;;;;;;;10.57;5.78;;;;;;;;;;5046543;28;20069;-69
2022/04/04 01:34:34;;;;;;;14.77;6.90;;;;;;;;;;5046018;28;20029;-68
2022/04/04 01:37:00;;;;;;;11.13;7.05;;;;;;;;;;5045820;28;20029;-69
2022/04/04 01:39:26;;;;;;;11.70;7.65;;;;;;;;;;5029122;28;20528;-68
2022/04/04 01:41:52;;;;;;;13.00;8.07;;;;;;;;;;5046950;28;20396;-68
2022/04/04 01:44:18;;;;;;;12.15;7.70;;;;;;;;;;5048165;28;20362;-69
2022/04/04 01:46:44;;;;;;;14.50;8.55;;;;;;;;;;5046170;28;20041;-69
2022/04/04 01:49:11;;;;;;;20.45;12.02;;;;;;;;;;5048934;28;20033;-68
2022/04/04 01:51:38;;;;;;;16.40;11.82;;;;;;;;;;5046866;28;20045;-68
2022/04/04 01:54:04;;;;;;;18.48;11.90;;;;;;;;;;5047052;28;20040;-68
2022/04/04 01:56:31;;;;;;;21.13;13.50;;;;;;;;;;5046822;28;20033;-68
2022/04/04 01:58:58;;;;;;;20.08;11.55;;;;;;;;;;5047820;28;20554;-68
2022/04/04 02:01:25;;;;;;;24.42;12.80;;;;;;;;;;5046774;28;20036;-69
2022/04/04 02:03:56;;;;;;;17.83;11.93;;;;;;;;;;5047514;28;20033;-69
2022/04/04 02:06:22;;;;;;;23.25;12.15;;;;;;;;;;5045614;28;20033;-70
2022/04/04 02:08:48;;;;;;;16.35;11.30;;;;;;;;;;5048727;28;20025;-69
2022/04/04 02:11:15;;;;;;;14.10;10.48;;;;;;;;;;5047711;28;20079;-69
2022/04/04 02:13:42;;;;;;;15.02;10.48;;;;;;;;;;5046204;28;20037;-69
2022/04/04 02:16:08;;;;;;;15.60;10.30;;;;;;;;;;5045675;28;21497;-70
2022/04/04 02:18:35;;;;;;;18.95;10.57;;;;;;;;;;5061181;28;20021;-69
2022/04/04 02:21:02;;;;;;;16.27;10.35;;;;;;;;;;5046085;28;20033;-69
2022/04/04 02:23:28;;;;;;;15.13;9.52;;;;;;;;;;5046857;28;20389;-69
2022/04/04 02:25:55;;;;;;;17.30;9.15;;;;;;;;;;5042473;28;20029;-70
2022/04/04 02:28:22;;;;;;;14.77;9.63;;;;;;;;;;5046654;28;20089;-69
2022/04/04 02:30:49;;;;;;;18.25;10.35;;;;;;;;;;5043702;28;20623;-69
2022/04/04 02:33:16;;;;;;;15.43;9.75;;;;;;;;;;5045325;28;20057;-70
2022/04/04 02:35:42;;;;;;;14.52;10.70;;;;;;;;;;5045794;28;20048;-70
2022/04/04 02:38:08;;;;;;;19.55;10.85;;;;;;;;;;5059863;28;20079;-70
2022/04/04 02:40:35;;;;;;;18.52;10.80;;;;;;;;;;5044733;28;20033;-69
2022/04/04 02:43:02;;;;;;;16.30;10.65;;;;;;;;;;5047272;28;20113;-69
2022/04/04 02:45:29;;;;;;;17.98;10.80;;;;;;;;;;5027029;28;20047;-70
2022/04/04 02:47:55;;;;;;;19.60;11.23;;;;;;;;;;5046939;28;20092;-70
2022/04/04 02:50:21;;;;;;;18.13;10.80;;;;;;;;;;5045983;28;20063;-69
2022/04/04 02:52:48;;;;;;;24.40;11.80;;;;;;;;;;5046195;28;20033;-70
2022/04/04 02:57:58;;;;;;;17.85;10.27;;;;;;;;;;5046259;28;20587;-69
2022/04/04 03:00:25;;;;;;;17.20;10.05;;;;;;;;;;5045434;28;20061;-69
2022/04/04 03:02:52;;;;;;;20.75;11.07;;;;;;;;;;5045624;28;20377;-69
2022/04/04 03:05:18;;;;;;;26.60;11.30;;;;;;;;;;5045177;28;20188;-70
2022/04/04 03:07:45;;;;;;;19.05;11.70;;;;;;;;;;5045623;28;20032;-69
2022/04/04 03:10:12;;;;;;;23.95;11.48;;;;;;;;;;5044949;28;20044;-69
2022/04/04 03:12:42;;;;;;;18.40;10.75;;;;;;;;;;5046026;28;20033;-69
2022/04/04 03:15:09;;;;;;;19.42;10.73;;;;;;;;;;5045183;28;20033;-69
2022/04/04 03:17:35;;;;;;;21.13;11.73;;;;;;;;;;5042668;28;20075;-69
2022/04/04 03:20:01;;;;;;;23.55;11.88;;;;;;;;;;5045306;28;20029;-69
2022/04/04 03:22:27;;;;;;;18.48;12.05;;;;;;;;;;5046117;28;20482;-69
2022/04/04 03:24:53;;;;;;;14.40;10.30;;;;;;;;;;5044915;28;20082;-70
2022/04/04 03:27:20;;;;;;;24.95;12.05;;;;;;;;;;5046369;28;20049;-69
2022/04/04 03:29:46;;;;;;;22.90;12.27;;;;;;;;;;5041423;28;20487;-69
2022/04/04 03:32:12;;;;;;;21.90;12.13;;;;;;;;;;5043591;28;20515;-69
2022/04/04 03:34:38;;;;;;;24.48;12.75;;;;;;;;;;5044323;28;20053;-69
2022/04/04 03:37:06;;;;;;;23.48;13.48;;;;;;;;;;5042402;28;20231;-70
2022/04/04 03:39:32;;;;;;;27.15;12.57;;;;;;;;;;5043778;28;20503;-68
2022/04/04 03:41:59;;;;;;;21.77;13.23;;;;;;;;;;5043851;28;20032;-69
2022/04/04 03:44:25;;;;;;;20.33;13.68;;;;;;;;;;5027016;28;20025;-69
2022/04/04 03:46:51;;;;;;;22.42;14.02;;;;;;;;;;5045797;28;20116;-69
2022/04/04 03:49:17;;;;;;;22.98;14.43;;;;;;;;;;5041246;28;20075;-69
2022/04/04 03:51:44;;;;;;;26.67;13.02;;;;;;;;;;5045170;28;20087;-69
2022/04/04 03:54:10;;;;;;;23.48;13.55;;;;;;;;;;5042238;28;20049;-70
2022/04/04 03:56:36;;;;;;;25.17;14.10;;;;;;;;;;5043332;28;20464;-68
2022/04/04 03:59:02;;;;;;;21.38;13.35;;;;;;;;;;5044161;28;20032;-69
2022/04/04 04:01:29;;;;;;;32.70;14.77;;;;;;;;;;5043678;28;20057;-69
2022/04/04 04:03:57;;;;;;;19.23;11.60;;;;;;;;;;5041838;28;20045;-69
2022/04/04 04:06:23;;;;;;;25.00;13.55;;;;;;;;;;5040688;28;20880;-69
2022/04/04 04:08:49;;;;;;;29.10;12.60;;;;;;;;;;5044428;28;20108;-68
2022/04/04 04:11:16;;;;;;;26.27;12.02;;;;;;;;;;5043547;28;20025;-69
2022/04/04 04:13:43;;;;;;;23.55;13.52;;;;;;;;;;5043414;28;20044;-69
2022/04/04 04:16:13;;;;;;;19.60;12.40;;;;;;;;;;5041815;28;20044;-68
2022/04/04 04:18:39;;;;;;;24.70;12.88;;;;;;;;;;5043094;28;20029;-69
2022/04/04 04:21:06;;;;;;;27.65;13.30;;;;;;;;;;5041474;28;20068;-69
2022/04/04 04:23:33;;;;;;;24.67;12.52;;;;;;;;;;5057756;28;20529;-69
2022/04/04 04:25:59;;;;;;;18.75;11.68;;;;;;;;;;5043183;28;20051;-68
2022/04/04 04:28:25;;;;;;;17.65;9.85;;;;;;;;;;5045820;28;20029;-68
2022/04/04 04:30:51;;;;;;;14.43;9.15;;;;;;;;;;5040593;28;20041;-68
2022/04/04 04:33:17;;;;;;;13.98;7.15;;;;;;;;;;5045242;28;20071;-68
2022/04/04 04:35:44;;;;;;;12.23;7.55;;;;;;;;;;5043747;28;20056;-70
2022/04/04 04:38:10;;;;;;;11.43;6.63;;;;;;;;;;5044661;28;20045;-68
2022/04/04 04:40:36;;;;;;;13.32;7.30;;;;;;;;;;5044577;28;20783;-69
2022/04/04 04:43:03;;;;;;;13.90;7.30;;;;;;;;;;5042719;28;20029;-69
2022/04/04 04:45:29;;;;;;;13.40;7.05;;;;;;;;;;5044549;28;20410;-70
2022/04/04 04:47:55;;;;;;;13.43;6.72;;;;;;;;;;5048298;28;20029;-69
2022/04/04 04:50:22;;;;;;;19.85;7.10;;;;;;;;;;5043968;28;20045;-68
2022/04/04 04:52:48;;;;;;;15.88;7.32;;;;;;;;;;5049189;28;20033;-69
2022/04/04 04:55:15;;;;;;;16.80;7.03;;;;;;;;;;5048352;28;20037;-69
2022/04/04 04:57:41;;;;;;;16.65;7.20;;;;;;;;;;5047620;28;20036;-69
2022/04/04 05:00:09;;;;;;;14.07;6.40;;;;;;;;;;5045647;28;20622;-70
2022/04/04 05:02:35;;;;;;;15.27;8.43;;;;;;;;;;5044918;28;20120;-69
2022/04/04 05:05:02;;;;;;;18.95;7.35;;;;;;;;;;5045494;28;20025;-68
2022/04/04 05:07:28;;;;;;;16.50;8.27;;;;;;;;;;5046442;28;20025;-68
2022/04/04 05:09:54;;;;;;;14.40;8.38;;;;;;;;;;5047937;28;20151;-69
2022/04/04 05:12:20;;;;;;;19.38;8.05;;;;;;;;;;5045721;28;20122;-69
2022/04/04 05:14:47;;;;;;;17.15;7.90;;;;;;;;;;5047598;28;20071;-68
2022/04/04 05:17:13;;;;;;;16.60;8.20;;;;;;;;;;5040230;28;20033;-68
2022/04/04 05:19:39;;;;;;;17.58;7.93;;;;;;;;;;5054231;28;20414;-68
2022/04/04 05:22:05;;;;;;;16.90;8.63;;;;;;;;;;5053751;28;20505;-67
2022/04/04 05:24:31;;;;;;;15.80;7.72;;;;;;;;;;5051299;28;20044;-68
2022/04/04 05:26:58;;;;;;;16.05;7.25;;;;;;;;;;5051179;28;20025;-68
2022/04/04 05:29:26;;;;;;;18.58;7.70;;;;;;;;;;5048648;28;20029;-69
2022/04/04 05:31:56;;;;;;;18.02;7.45;;;;;;;;;;5044035;28;20033;-68
2022/04/04 05:34:23;;;;;;;11.55;5.50;;;;;;;;;;5051499;28;20139;-69
2022/04/04 05:36:49;;;;;;;15.15;5.55;;;;;;;;;;5039064;28;20026;-69
2022/04/04 05:39:16;;;;;;;11.23;4.82;;;;;;;;;;5049462;28;20037;-69
2022/04/04 05:41:42;;;;;;;8.95;4.22;;;;;;;;;;5040430;28;20083;-69
2022/04/04 05:44:08;;;;;;;10.55;3.70;;;;;;;;;;5045793;28;20040;-69
2022/04/04 05:46:34;;;;;;;12.98;3.72;;;;;;;;;;5046795;28;20033;-67
2022/04/04 05:49:01;;;;;;;14.25;4.38;;;;;;;;;;5044235;28;20111;-69
2022/04/04 05:51:28;;;;;;;10.57;4.05;;;;;;;;;;5044667;28;20064;-67
2022/04/04 05:53:54;;;;;;;8.32;3.47;;;;;;;;;;5046401;28;20029;-67
2022/04/04 05:56:21;;;;;;;5.05;2.65;;;;;;;;;;5049081;28;20036;-69
2022/04/04 05:58:48;;;;;;;6.47;2.67;;;;;;;;;;5049682;28;20468;-67
2022/04/04 06:01:14;;;;;;;8.73;2.90;;;;;;;;;;5046369;28;20059;-70
2022/04/04 06:03:40;;;;;;;9.45;2.33;;;;;;;;;;5045629;28;20029;-69
2022/04/04 06:06:06;;;;;;;8.25;2.33;;;;;;;;;;5042972;28;20037;-68
2022/04/04 06:08:33;;;;;;;7.68;4.13;;;;;;;;;;5044729;28;20037;-69
2022/04/04 06:10:59;;;;;;;6.75;2.58;;;;;;;;;;5043798;28;20044;-68
2022/04/04 06:13:25;;;;;;;5.47;2.17;;;;;;;;;;5045912;28;20028;-69
2022/04/04 06:15:51;;;;;;;6.20;2.78;;;;;;;;;;5045519;28;20052;-68
2022/04/04 06:18:17;;;;;;;6.40;2.58;;;;;;;;;;5043167;28;20116;-69
2022/04/04 06:20:43;;;;;;;5.65;2.25;;;;;;;;;;5041339;28;20275;-68
2022/04/04 06:23:11;;;;;;;6.65;2.80;;;;;;;;;;5040841;28;20045;-68
2022/04/04 06:25:38;;;;;;;9.38;3.35;;;;;;;;;;5041992;28;20173;-68
2022/04/04 06:28:04;;;;;;;9.35;2.88;;;;;;;;;;5045629;28;20029;-69
2022/04/04 06:30:31;;;;;;;5.60;2.70;;;;;;;;;;5046905;28;20032;-69
2022/04/04 06:32:57;;;;;;;10.98;2.92;;;;;;;;;;5045805;28;20025;-69
2022/04/04 06:35:26;;;;;;;4.53;2.65;;;;;;;;;;5041896;28;20075;-69
2022/04/04 06:37:52;;;;;;;8.57;3.55;;;;;;;;;;5042518;28;20021;-70
2022/04/04 06:40:19;;;;;;;6.65;2.92;;;;;;;;;;5045374;28;20472;-70
2022/04/04 06:42:45;;;;;;;9.93;3.78;;;;;;;;;;5044398;28;20037;-70
2022/04/04 06:45:12;;;;;;;9.27;4.35;;;;;;;;;;5045939;28;20033;-70
2022/04/04 06:47:38;;;;;;;8.50;4.07;;;;;;;;;;5041288;28;20033;-70
2022/04/04 06:50:04;;;;;;;13.52;4.65;;;;;;;;;;5043861;28;20064;-70
2022/04/04 06:52:31;;;;;;;7.85;4.55;;;;;;;;;;5046845;28;20043;-69
2022/04/04 06:54:57;;;;;;;11.75;5.43;;;;;;;;;;5048673;28;20017;-70
2022/04/04 06:57:23;;;;;;;12.32;5.68;;;;;;;;;;5034727;28;20048;-70
2022/04/04 06:59:50;;;;;;;10.20;5.03;;;;;;;;;;5049721;28;20377;-70
2022/04/04 07:02:16;;;;;;;13.27;6.25;;;;;;;;;;5045053;28;20053;-70
2022/04/04 07:04:42;;;;;;;15.52;6.70;;;;;;;;;;5049390;28;20104;-70
2022/04/04 07:07:11;;;;;;;13.23;5.88;;;;;;;;;;5048721;28;20107;-70
2022/04/04 07:09:37;;;;;;;11.30;6.93;;;;;;;;;;5048527;28;20028;-71
2022/04/04 07:12:05;;;;;;;14.30;7.25;;;;;;;;;;5033592;28;20048;-70
2022/04/04 07:14:31;;;;;;;13.25;7.00;;;;;;;;;;5052525;28;20029;-70
2022/04/04 07:16:57;;;;;;;17.40;7.95;;;;;;;;;;5051890;28;20090;-70
2022/04/04 07:19:23;;;;;;;13.45;7.65;;;;;;;;;;5046160;28;20388;-70
2022/04/04 07:21:53;;;;;;;15.07;8.40;;;;;;;;;;5049180;28;20040;-71
2022/04/04 07:24:20;;;;;;;18.77;7.65;;;;;;;;;;5042247;28;20045;-70
2022/04/04 07:26:48;;;;;;;14.00;7.68;;;;;;;;;;5081114;28;20041;-70
2022/04/04 07:29:14;;;;;;;15.52;8.13;;;;;;;;;;5046962;28;20033;-70
2022/04/04 07:31:41;;;;;;;15.32;8.50;;;;;;;;;;5074350;28;20044;-71
2022/04/04 07:34:07;;;;;;;16.73;7.78;;;;;;;;;;5047045;28;20025;-71
2022/04/04 07:36:34;;;;;;;19.35;8.10;;;;;;;;;;5051724;28;20032;-72
2022/04/04 07:39:00;;;;;;;20.58;8.07;;;;;;;;;;5052338;28;20074;-72
2022/04/04 07:41:26;;;;;;;16.13;7.38;;;;;;;;;;5050608;28;20049;-72
2022/04/04 07:43:53;;;;;;;16.08;8.25;;;;;;;;;;5048375;28;20029;-72
2022/04/04 07:46:19;;;;;;;22.15;8.65;;;;;;;;;;5052126;28;20031;-70
2022/04/04 07:48:45;;;;;;;18.33;8.00;;;;;;;;;;5047653;28;20079;-70
2022/04/04 07:51:12;;;;;;;16.67;7.55;;;;;;;;;;5050539;28;20167;-70
2022/04/04 07:53:38;;;;;;;18.05;7.63;;;;;;;;;;5071979;28;20112;-71
2022/04/04 07:56:04;;;;;;;13.93;7.97;;;;;;;;;;5050912;28;20036;-71
2022/04/04 07:58:30;;;;;;;13.95;7.10;;;;;;;;;;5047871;28;20072;-71
2022/04/04 08:00:56;;;;;;;16.92;7.43;;;;;;;;;;5050418;28;20053;-71
2022/04/04 08:03:23;;;;;;;15.40;7.65;;;;;;;;;;5050062;28;20065;-71
2022/04/04 08:05:49;;;;;;;14.90;7.07;;;;;;;;;;5046939;28;20439;-71
2022/04/04 08:08:16;;;;;;;11.88;6.63;;;;;;;;;;5050217;28;20068;-71
2022/04/04 08:10:43;;;;;;;9.48;5.63;;;;;;;;;;5044232;28;20029;-71
2022/04/04 08:13:09;;;;;;;15.88;6.25;;;;;;;;;;5031487;28;20083;-71
2022/04/04 08:15:35;;;;;;;14.25;5.88;;;;;;;;;;5042772;28;20098;-70
2022/04/04 08:18:03;;;;;;;11.45;5.47;;;;;;;;;;5040893;28;20040;-72
2022/04/04 08:20:30;;;;;;;16.60;6.45;;;;;;;;;;5039045;28;20032;-72
2022/04/04 08:22:56;;;;;;;9.70;4.75;;;;;;;;;;5043101;28;20025;-72
2022/04/04 08:25:22;;;;;;;12.23;5.22;;;;;;;;;;5046853;28;20036;-73
2022/04/04 08:27:48;;;;;;;7.68;5.13;;;;;;;;;;5046249;28;20028;-73
2022/04/04 08:30:15;;;;;;;7.75;5.15;;;;;;;;;;5037241;28;20025;-71
2022/04/04 08:32:42;;;;;;;7.75;4.20;;;;;;;;;;5048556;28;20116;-71
2022/04/04 08:35:09;;;;;;;5.03;4.20;;;;;;;;;;5041269;28;20033;-72
2022/04/04 08:37:35;;;;;;;6.78;3.83;;;;;;;;;;5043980;28;20480;-73
2022/04/04 08:40:03;;;;;;;11.45;5.05;;;;;;;;;;5039724;28;20389;-72
2022/04/04 08:42:29;;;;;;;8.57;4.30;;;;;;;;;;5049677;28;20029;-72
2022/04/04 08:44:59;;;;;;;12.13;3.65;;;;;;;;;;5048537;28;20044;-72
2022/04/04 08:47:26;;;;;;;7.38;3.42;;;;;;;;;;5042737;28;20044;-72
2022/04/04 08:49:52;;;;;;;7.65;3.60;;;;;;;;;;5046274;28;20024;-72
2022/04/04 08:52:18;;;;;;;7.35;3.20;;;;;;;;;;5037989;28;20112;-72
2022/04/04 08:54:44;;;;;;;7.40;2.83;;;;;;;;;;5035844;28;20026;-72
2022/04/04 08:57:11;;;;;;;7.57;3.03;;;;;;;;;;5035636;28;20536;-71
2022/04/04 08:59:38;;;;;;;6.68;3.22;;;;;;;;;;5049217;28;20037;-71
2022/04/04 09:02:05;;;;;;;6.75;2.95;;;;;;;;;;5050784;28;20080;-73
2022/04/04 09:04:33;;;;;;;7.47;2.92;;;;;;;;;;5043365;28;20075;-72
2022/04/04 09:07:05;;;;;;;6.47;2.45;;;;;;;;;;5038629;28;20057;-73
2022/04/04 09:09:38;;;;;;;9.52;4.45;;;;;;;;;;5041571;28;20423;-73
2022/04/04 09:12:07;;;;;;;8.25;3.00;;;;;;;;;;5039455;28;20029;-72
2022/04/04 09:14:38;;;;;;;8.05;3.10;;;;;;;;;;5033602;28;20115;-72
2022/04/04 09:17:08;;;;;;;5.47;2.63;;;;;;;;;;5050767;28;20025;-73
2022/04/04 09:19:34;;;;;;;10.63;3.15;;;;;;;;;;5045359;28;20112;-72
2022/04/04 09:22:08;;;;;;;5.72;2.53;;;;;;;;;;5049784;28;20043;-72
2022/04/04 09:25:02;;;;;;;11.20;2.90;;;;;;;;;;5047249;28;20111;-73
2022/04/04 09:27:30;;;;;;;6.65;2.72;;;;;;;;;;5029510;28;20029;-72
2022/04/04 09:30:04;;;;;;;8.10;2.80;;;;;;;;;;5042519;28;20108;-72
2022/04/04 09:32:44;;;;;;;10.50;3.40;;;;;;;;;;5046632;28;20107;-73
2022/04/04 09:35:14;;;;;;;6.72;2.90;;;;;;;;;;5041774;28;20025;-72
2022/04/04 09:37:41;;;;;;;7.38;2.90;;;;;;;;;;5037369;28;20399;-73
2022/04/04 09:40:07;;;;;;;6.72;3.17;;;;;;;;;;5048288;28;20020;-72
2022/04/04 09:42:34;;;;;;;6.60;2.65;;;;;;;;;;5052947;28;20044;-73
2022/04/04 09:45:02;;;;;;;5.68;2.45;;;;;;;;;;5054956;28;20051;-73
2022/04/04 09:47:47;;;;;;;6.95;3.05;;;;;;;;;;5049088;28;20082;-72
2022/04/04 09:50:30;;;;;;;10.38;2.88;;;;;;;;;;5059991;28;20092;-72
2022/04/04 09:52:57;;;;;;;7.20;3.25;;;;;;;;;;5044725;28;20078;-70
2022/04/04 09:55:42;;;;;;;4.35;2.40;;;;;;;;;;5047321;28;20376;-72
2022/04/04 09:58:09;;;;;;;9.60;3.08;;;;;;;;;;5049835;28;20130;-71
2022/04/04 10:00:37;;;;;;;9.63;3.22;;;;;;;;;;5051430;28;20040;-72
2022/04/04 10:03:04;;;;;;;7.15;2.83;;;;;;;;;;5052658;28;20120;-72
2022/04/04 10:05:31;;;;;;;5.80;2.33;;;;;;;;;;5051451;28;20040;-70
2022/04/04 10:07:57;;;;;;;7.93;2.45;;;;;;;;;;5053501;28;20044;-72
2022/04/04 10:10:30;;;;;;;9.77;2.80;;;;;;;;;;5051546;28;20044;-73
2022/04/04 10:12:57;;;;;;;10.35;2.95;;;;;;;;;;5052211;28;20044;-71
2022/04/04 10:15:24;;;;;;;10.50;2.72;;;;;;;;;;5050585;28;20056;-72
2022/04/04 10:17:51;;;;;;;7.15;3.05;;;;;;;;;;5052554;28;20072;-72
2022/04/04 10:20:18;;;;;;;8.30;2.78;;;;;;;;;;5041985;28;20078;-71
2022/04/04 10:22:46;;;;;;;8.25;2.90;;;;;;;;;;5043285;28;20080;-71
2022/04/04 10:25:13;;;;;;;6.38;2.40;;;;;;;;;;5041420;28;20034;-72
2022/04/04 10:27:40;;;;;;;7.90;2.00;;;;;;;;;;5045274;28;20486;-71
2022/04/04 10:30:08;;;;;;;6.93;2.13;;;;;;;;;;5052050;28;20017;-71
2022/04/04 10:32:34;;;;;;;7.60;2.50;;;;;;;;;;5071589;28;20039;-71
2022/04/04 10:35:13;;;;;;;4.05;2.20;;;;;;;;;;5050336;28;20032;-70
2022/04/04 10:37:45;;;;;;;7.05;2.88;;;;;;;;;;5055024;28;20033;-72
2022/04/04 10:40:24;;;;;;;10.77;2.10;;;;;;;;;;5056908;28;20029;-71
2022/04/04 10:43:09;;;;;;;7.65;1.95;;;;;;;;;;5050433;28;20037;-71
2022/04/04 10:45:54;;;;;;;3.78;2.22;;;;;;;;;;5052353;28;20389;-71
2022/04/04 10:48:21;;;;;;;7.82;1.90;;;;;;;;;;5056785;28;20029;-72
2022/04/04 10:50:47;;;;;;;6.32;1.80;;;;;;;;;;5052448;28;20029;-72
2022/04/04 10:53:13;;;;;;;6.65;1.50;;;;;;;;;;5048426;28;20090;-73
2022/04/04 10:55:44;;;;;;;1.90;1.10;;;;;;;;;;5044926;28;20048;-72
2022/04/04 10:58:22;;;;;;;3.10;1.38;;;;;;;;;;5051423;28;20021;-72
2022/04/04 11:01:05;;;;;;;4.35;1.50;;;;;;;;;;5051357;28;20120;-73
2022/04/04 11:03:41;;;;;;;4.10;1.15;;;;;;;;;;5049190;28;20353;-72
2022/04/04 11:09:00;;;;;;;2.28;0.90;;;;;;;;;;5045237;28;20092;-72
2022/04/04 11:11:43;;;;;;;1.58;0.90;;;;;;;;;;5051558;28;20033;-71
2022/04/04 11:14:09;;;;;;;2.75;0.75;;;;;;;;;;5048609;28;20419;-70
2022/04/04 11:16:54;;;;;;;3.45;0.90;;;;;;;;;;5050457;28;20029;-72
2022/04/04 11:19:20;;;;;;;2.83;0.90;;;;;;;;;;5033607;28;20041;-72
2022/04/04 11:21:46;;;;;;;4.35;1.17;;;;;;;;;;5042694;28;20083;-70
2022/04/04 11:24:15;;;;;;;4.00;1.15;;;;;;;;;;5045505;28;20036;-71
2022/04/04 11:26:41;;;;;;;1.52;1.05;;;;;;;;;;5047615;28;20032;-72
2022/04/04 11:29:09;;;;;;;5.30;0.90;;;;;;;;;;5038675;28;20028;-72
2022/04/04 11:31:47;;;;;;;5.60;1.35;;;;;;;;;;5047246;28;20039;-72
2022/04/04 11:34:14;;;;;;;3.25;0.75;;;;;;;;;;5047469;28;20473;-71
2022/04/04 11:36:40;;;;;;;4.82;1.25;;;;;;;;;;5048612;28;20045;-72
2022/04/04 11:39:08;;;;;;;3.03;1.30;;;;;;;;;;5041301;28;20109;-72
2022/04/04 11:41:39;;;;;;;3.35;0.77;;;;;;;;;;5049534;28;20037;-72
2022/04/04 11:44:06;;;;;;;2.17;1.17;;;;;;;;;;5029601;28;20792;-72
2022/04/04 11:46:32;;;;;;;3.22;1.00;;;;;;;;;;5043307;28;20029;-72
2022/04/04 11:49:00;;;;;;;1.63;0.98;;;;;;;;;;5048534;28;20118;-72
2022/04/04 11:51:26;;;;;;;1.13;0.75;;;;;;;;;;5048927;28;20538;-72
2022/04/04 11:54:09;;;;;;;1.92;0.90;;;;;;;;;;5049674;28;20157;-73
2022/04/04 11:56:35;;;;;;;2.25;0.90;;;;;;;;;;5047760;28;20037;-72
2022/04/04 11:59:04;;;;;;;1.48;0.95;;;;;;;;;;5048241;28;20384;-72
2022/04/04 12:01:36;;;;;;;5.35;1.23;;;;;;;;;;5047197;28;20061;-72
2022/04/04 12:04:05;;;;;;;2.55;1.25;;;;;;;;;;5048331;28;20036;-72
2022/04/04 12:06:33;;;;;;;2.63;1.25;;;;;;;;;;5048358;28;20159;-73
2022/04/04 12:09:03;;;;;;;2.47;1.30;;;;;;;;;;5048202;28;20463;-72
2022/04/04 12:11:29;;;;;;;2.65;1.35;;;;;;;;;;5051089;28;20044;-72
2022/04/04 12:14:00;;;;;;;2.30;1.38;;;;;;;;;;5043616;28;20114;-72
2022/04/04 12:16:27;;;;;;;2.70;1.70;;;;;;;;;;5047684;28;20037;-72
2022/04/04 12:18:58;;;;;;;5.63;2.10;;;;;;;;;;5048070;28;20025;-72
2022/04/04 12:21:24;;;;;;;3.90;2.17;;;;;;;;;;5049564;28;20431;-72
2022/04/04 12:26:35;;;;;;;5.22;1.95;;;;;;;;;;5043238;28;20043;-73
2022/04/04 12:29:03;;;;;;;6.43;3.60;;;;;;;;;;5047085;28;20029;-72
2022/04/04 12:31:29;;;;;;;9.05;3.70;;;;;;;;;;5048885;28;20083;-72
2022/04/04 12:34:01;;;;;;;9.38;4.75;;;;;;;;;;5047770;28;20108;-72
2022/04/04 12:36:38;;;;;;;6.30;2.95;;;;;;;;;;5049142;28;20029;-72
2022/04/04 12:39:05;;;;;;;4.53;2.65;;;;;;;;;;5046278;28;20376;-72
2022/04/04 12:41:41;;;;;;;4.53;2.88;;;;;;;;;;5049388;28;20507;-72
2022/04/04 12:44:07;;;;;;;6.43;3.03;;;;;;;;;;5037351;28;20036;-74
2022/04/04 12:46:34;;;;;;;5.03;2.92;;;;;;;;;;5057986;28;20052;-72
2022/04/04 12:49:18;;;;;;;7.22;3.25;;;;;;;;;;5043570;28;20029;-73
2022/04/04 12:51:51;;;;;;;7.03;3.67;;;;;;;;;;5041154;28;20048;-73
2022/04/04 12:54:24;;;;;;;5.22;3.75;;;;;;;;;;5051115;28;20025;-73
2022/04/04 12:56:51;;;;;;;6.90;3.60;;;;;;;;;;5050307;28;20031;-73
2022/04/04 12:59:18;;;;;;;6.80;3.70;;;;;;;;;;5049098;28;20057;-73
2022/04/04 13:02:00;;;;;;;8.20;3.63;;;;;;;;;;5044409;28;20040;-73
2022/04/04 13:04:26;;;;;;;10.40;4.55;;;;;;;;;;5035705;28;20029;-73
2022/04/04 13:06:52;;;;;;;9.73;4.80;;;;;;;;;;5046721;28;20048;-74
2022/04/04 13:09:25;;;;;;;13.27;4.50;;;;;;;;;;5047919;28;20112;-74
2022/04/04 13:11:51;;;;;;;;;;;;;;;;;;5054366;28;20469;-74
2022/04/04 13:14:17;;;;;;;11.77;4.82;;;;;;;;;;5066487;28;19908;-74
2022/04/04 13:16:50;;;;;;;13.15;5.75;;;;;;;;;;5046954;28;20040;-73
2022/04/04 13:19:17;;;;;;;17.17;6.38;;;;;;;;;;5052468;28;20412;-73
2022/04/04 13:21:44;;;;;;;17.15;6.65;;;;;;;;;;5044063;28;20036;-73
2022/04/04 13:24:10;;;;;;;19.67;6.07;;;;;;;;;;5052132;28;20036;-73
2022/04/04 13:26:38;;;;;;;14.90;5.50;;;;;;;;;;5059640;28;20029;-73
2022/04/04 13:29:04;;;;;;;12.45;5.00;;;;;;;;;;5050180;28;20029;-73
2022/04/04 13:31:30;;;;;;;16.40;5.30;;;;;;;;;;5054777;28;20040;-73
2022/04/04 13:33:57;;;;;;;18.88;6.15;;;;;;;;;;5052074;28;20024;-73
2022/04/04 13:36:27;;;;;;;15.98;4.93;;;;;;;;;;5053218;28;20083;-73
2022/04/04 13:38:55;;;;;;;12.10;5.00;;;;;;;;;;5052115;28;20461;-73
2022/04/04 13:41:22;;;;;;;15.50;5.60;;;;;;;;;;5053977;28;20056;-73
2022/04/04 13:43:48;;;;;;;11.73;5.93;;;;;;;;;;5038002;28;20044;-73
2022/04/04 13:46:18;;;;;;;12.23;4.75;;;;;;;;;;5049854;28;20044;-73
2022/04/04 13:48:45;;;;;;;11.52;5.38;;;;;;;;;;5052990;28;20029;-73
2022/04/04 13:51:11;;;;;;;16.30;5.00;;;;;;;;;;5053891;28;20078;-72
2022/04/04 13:53:37;;;;;;;19.23;6.90;;;;;;;;;;5048315;28;20037;-71
2022/04/04 13:56:03;;;;;;;14.38;5.97;;;;;;;;;;5037964;28;20037;-71
2022/04/04 13:58:30;;;;;;;19.20;6.13;;;;;;;;;;5039442;28;20036;-71
2022/04/04 14:00:56;;;;;;;16.15;5.80;;;;;;;;;;5041415;28;20029;-72
2022/04/04 14:03:22;;;;;;;15.68;6.38;;;;;;;;;;5044784;28;20036;-72
2022/04/04 14:05:55;;;;;;;18.60;5.55;;;;;;;;;;5042710;28;20048;-71
2022/04/04 14:08:22;;;;;;;14.18;5.65;;;;;;;;;;5043863;28;20033;-72
2022/04/04 14:10:48;;;;;;;20.60;5.88;;;;;;;;;;5037994;28;20030;-71
2022/04/04 14:13:14;;;;;;;18.33;5.93;;;;;;;;;;5058087;28;20024;-71
2022/04/04 14:15:40;;;;;;;18.48;5.60;;;;;;;;;;5043870;28;20029;-71
2022/04/04 14:18:07;;;;;;;18.50;6.10;;;;;;;;;;5044591;28;20133;-73
2022/04/04 14:20:33;;;;;;;17.30;5.60;;;;;;;;;;5043847;28;20577;-72
2022/04/04 14:22:59;;;;;;;19.05;6.93;;;;;;;;;;5053740;28;20067;-73
2022/04/04 14:25:25;;;;;;;14.82;5.07;;;;;;;;;;5039964;28;20087;-72
2022/04/04 14:27:52;;;;;;;19.35;5.95;;;;;;;;;;5053273;28;20034;-72
2022/04/04 14:30:18;;;;;;;18.92;5.90;;;;;;;;;;5041989;28;20090;-72
2022/04/04 14:32:46;;;;;;;18.85;5.97;;;;;;;;;;5047766;28;20119;-71
2022/04/04 14:35:12;;;;;;;26.67;5.63;;;;;;;;;;5036237;28;20158;-71
2022/04/04 14:37:38;;;;;;;27.23;7.15;;;;;;;;;;5053461;28;20029;-71
2022/04/04 14:40:05;;;;;;;34.33;7.55;;;;;;;;;;5052564;28;20032;-71
2022/04/04 14:42:31;;;;;;;31.70;6.72;;;;;;;;;;5066684;28;20117;-71
2022/04/04 14:44:57;;;;;;;29.15;6.68;;;;;;;;;;5063511;28;20033;-72